sensor_id;sensor_type;location;lat;lon;timestamp;pressure;altitude;pressure_sealevel;temperature;humidity
76603;BME280;65075;48.390;17.598;2023-04-25T00:02:02;98829.19;;;13.53;52.62
76603;BME280;65075;48.390;17.598;2023-04-25T00:04:29;98821.84;;;13.75;52.29
76603;BME280;65075;48.390;17.598;2023-04-25T00:06:55;98815.97;;;14.04;51.88
76603;BME280;65075;48.390;17.598;2023-04-25T00:09:21;98820.88;;;13.44;53.10
76603;BME280;65075;48.390;17.598;2023-04-25T00:11:47;98824.22;;;13.68;53.05
76603;BME280;65075;48.390;17.598;2023-04-25T00:14:13;98831.31;;;13.56;53.44
76603;BME280;65075;48.390;17.598;2023-04-25T00:16:38;98793.66;;;13.61;53.74
76603;BME280;65075;48.390;17.598;2023-04-25T00:19:06;98834.19;;;13.51;53.41
76603;BME280;65075;48.390;17.598;2023-04-25T00:21:32;98823.66;;;13.17;54.26
76603;BME280;65075;48.390;17.598;2023-04-25T00:23:59;98837.59;;;13.02;55.06
76603;BME280;65075;48.390;17.598;2023-04-25T00:26:25;98840.28;;;13.34;54.71
76603;BME280;65075;48.390;17.598;2023-04-25T00:28:51;98796.63;;;12.83;54.55
76603;BME280;65075;48.390;17.598;2023-04-25T00:31:17;98793.47;;;12.76;54.92
76603;BME280;65075;48.390;17.598;2023-04-25T00:33:42;98815.34;;;13.08;54.75
76603;BME280;65075;48.390;17.598;2023-04-25T00:36:08;98820.25;;;12.93;54.73
76603;BME280;65075;48.390;17.598;2023-04-25T00:38:34;98838.41;;;13.02;54.59
76603;BME280;65075;48.390;17.598;2023-04-25T00:41:00;98832.38;;;13.19;54.42
76603;BME280;65075;48.390;17.598;2023-04-25T00:43:30;98826.56;;;13.48;53.14
76603;BME280;65075;48.390;17.598;2023-04-25T00:45:56;98830.75;;;13.45;53.40
76603;BME280;65075;48.390;17.598;2023-04-25T00:48:22;98828.69;;;13.51;53.24
76603;BME280;65075;48.390;17.598;2023-04-25T00:50:53;98835.13;;;13.33;53.85
76603;BME280;65075;48.390;17.598;2023-04-25T00:53:20;98805.28;;;13.31;53.37
76603;BME280;65075;48.390;17.598;2023-04-25T00:55:47;98821.34;;;13.73;52.92
76603;BME280;65075;48.390;17.598;2023-04-25T00:58:13;98810.78;;;13.17;53.42
76603;BME280;65075;48.390;17.598;2023-04-25T01:00:40;98827.47;;;13.02;53.90
76603;BME280;65075;48.390;17.598;2023-04-25T01:03:06;98816.44;;;13.84;51.47
76603;BME280;65075;48.390;17.598;2023-04-25T01:05:32;98833.38;;;13.37;53.20
76603;BME280;65075;48.390;17.598;2023-04-25T01:07:58;98824.06;;;13.24;52.93
76603;BME280;65075;48.390;17.598;2023-04-25T01:10:24;98827.19;;;13.04;53.98
76603;BME280;65075;48.390;17.598;2023-04-25T01:12:50;98798.66;;;12.91;54.46
76603;BME280;65075;48.390;17.598;2023-04-25T01:15:16;98813.38;;;13.50;53.84
76603;BME280;65075;48.390;17.598;2023-04-25T01:17:41;98825.66;;;13.39;53.02
76603;BME280;65075;48.390;17.598;2023-04-25T01:20:11;98816.16;;;13.86;52.54
76603;BME280;65075;48.390;17.598;2023-04-25T01:22:36;98822.09;;;12.97;54.68
76603;BME280;65075;48.390;17.598;2023-04-25T01:25:02;98829.41;;;12.56;55.97
76603;BME280;65075;48.390;17.598;2023-04-25T01:27:29;98816.53;;;13.43;53.38
76603;BME280;65075;48.390;17.598;2023-04-25T01:29:56;98814.31;;;13.32;53.97
76603;BME280;65075;48.390;17.598;2023-04-25T01:32:23;98828.66;;;13.64;52.70
76603;BME280;65075;48.390;17.598;2023-04-25T01:34:49;98833.78;;;13.16;54.06
76603;BME280;65075;48.390;17.598;2023-04-25T01:37:16;98828.91;;;13.13;53.95
76603;BME280;65075;48.390;17.598;2023-04-25T01:39:42;98829.56;;;13.24;53.96
76603;BME280;65075;48.390;17.598;2023-04-25T01:42:08;98825.47;;;13.35;53.76
76603;BME280;65075;48.390;17.598;2023-04-25T01:44:33;98802.13;;;13.10;53.88
76603;BME280;65075;48.390;17.598;2023-04-25T01:46:59;98800.38;;;13.42;52.43
76603;BME280;65075;48.390;17.598;2023-04-25T01:49:24;98825.31;;;13.81;52.58
76603;BME280;65075;48.390;17.598;2023-04-25T01:51:50;98838.38;;;13.35;53.73
76603;BME280;65075;48.390;17.598;2023-04-25T01:54:16;98838.28;;;13.12;53.90
76603;BME280;65075;48.390;17.598;2023-04-25T01:56:43;98836.19;;;13.72;52.52
76603;BME280;65075;48.390;17.598;2023-04-25T01:59:09;98841.06;;;13.62;52.76
76603;BME280;65075;48.390;17.598;2023-04-25T02:01:35;98840.69;;;13.55;52.97
76603;BME280;65075;48.390;17.598;2023-04-25T02:04:00;98827.47;;;13.02;54.44
76603;BME280;65075;48.390;17.598;2023-04-25T02:06:26;98788.44;;;13.73;52.49
76603;BME280;65075;48.390;17.598;2023-04-25T02:08:51;98829.31;;;13.48;53.23
76603;BME280;65075;48.390;17.598;2023-04-25T02:11:17;98828.50;;;13.61;52.86
76603;BME280;65075;48.390;17.598;2023-04-25T02:13:43;98821.59;;;13.50;53.16
76603;BME280;65075;48.390;17.598;2023-04-25T02:16:08;98802.25;;;12.59;55.32
76603;BME280;65075;48.390;17.598;2023-04-25T02:18:34;98819.75;;;12.77;54.98
76603;BME280;65075;48.390;17.598;2023-04-25T02:21:02;98815.59;;;13.97;51.60
76603;BME280;65075;48.390;17.598;2023-04-25T02:23:28;98820.09;;;13.16;54.12
76603;BME280;65075;48.390;17.598;2023-04-25T02:25:56;98813.69;;;13.07;54.54
76603;BME280;65075;48.390;17.598;2023-04-25T02:28:23;98832.47;;;13.41;53.91
76603;BME280;65075;48.390;17.598;2023-04-25T02:30:49;98824.16;;;13.33;53.53
76603;BME280;65075;48.390;17.598;2023-04-25T02:33:15;98823.28;;;12.64;54.70
76603;BME280;65075;48.390;17.598;2023-04-25T02:35:42;98828.13;;;13.27;54.04
76603;BME280;65075;48.390;17.598;2023-04-25T02:38:07;98809.19;;;12.84;54.55
76603;BME280;65075;48.390;17.598;2023-04-25T02:40:33;98819.78;;;13.32;54.30
76603;BME280;65075;48.390;17.598;2023-04-25T02:42:58;98821.16;;;13.02;54.65
76603;BME280;65075;48.390;17.598;2023-04-25T02:45:24;98820.59;;;13.18;54.21
76603;BME280;65075;48.390;17.598;2023-04-25T02:47:49;98819.81;;;13.18;53.73
76603;BME280;65075;48.390;17.598;2023-04-25T02:50:15;98817.47;;;13.11;54.98
76603;BME280;65075;48.390;17.598;2023-04-25T02:52:40;98796.78;;;13.33;53.83
76603;BME280;65075;48.390;17.598;2023-04-25T02:55:06;98810.59;;;12.68;55.57
76603;BME280;65075;48.390;17.598;2023-04-25T02:57:32;98819.09;;;14.11;52.95
76603;BME280;65075;48.390;17.598;2023-04-25T02:59:57;98814.09;;;13.42;54.05
76603;BME280;65075;48.390;17.598;2023-04-25T03:02:23;98808.69;;;14.22;51.53
76603;BME280;65075;48.390;17.598;2023-04-25T03:04:48;98812.03;;;12.79;55.06
76603;BME280;65075;48.390;17.598;2023-04-25T03:07:14;98810.63;;;13.50;53.88
76603;BME280;65075;48.390;17.598;2023-04-25T03:09:39;98816.50;;;12.75;55.65
76603;BME280;65075;48.390;17.598;2023-04-25T03:12:05;98780.50;;;12.36;56.43
76603;BME280;65075;48.390;17.598;2023-04-25T03:14:31;98802.84;;;12.43;56.10
76603;BME280;65075;48.390;17.598;2023-04-25T03:16:56;98815.34;;;12.30;57.34
76603;BME280;65075;48.390;17.598;2023-04-25T03:19:22;98813.06;;;12.19;56.83
76603;BME280;65075;48.390;17.598;2023-04-25T03:21:47;98790.44;;;12.32;56.16
76603;BME280;65075;48.390;17.598;2023-04-25T03:24:13;98808.66;;;12.23;56.55
76603;BME280;65075;48.390;17.598;2023-04-25T03:26:39;98786.53;;;11.87;56.86
76603;BME280;65075;48.390;17.598;2023-04-25T03:29:04;98794.88;;;11.95;56.79
76603;BME280;65075;48.390;17.598;2023-04-25T03:31:30;98809.75;;;12.54;56.01
76603;BME280;65075;48.390;17.598;2023-04-25T03:33:56;98806.28;;;12.48;56.27
76603;BME280;65075;48.390;17.598;2023-04-25T03:36:22;98799.84;;;12.26;56.98
76603;BME280;65075;48.390;17.598;2023-04-25T03:38:47;98796.56;;;12.42;56.59
76603;BME280;65075;48.390;17.598;2023-04-25T03:41:13;98807.72;;;12.46;56.54
76603;BME280;65075;48.390;17.598;2023-04-25T03:43:39;98806.78;;;13.51;53.97
76603;BME280;65075;48.390;17.598;2023-04-25T03:46:04;98795.47;;;12.25;56.24
76603;BME280;65075;48.390;17.598;2023-04-25T03:48:30;98804.94;;;11.81;57.90
76603;BME280;65075;48.390;17.598;2023-04-25T03:50:57;98816.75;;;11.95;58.03
76603;BME280;65075;48.390;17.598;2023-04-25T03:53:22;98804.53;;;12.07;57.36
76603;BME280;65075;48.390;17.598;2023-04-25T03:55:48;98811.13;;;12.97;55.03
76603;BME280;65075;48.390;17.598;2023-04-25T03:58:13;98815.28;;;12.35;56.33
76603;BME280;65075;48.390;17.598;2023-04-25T04:00:39;98816.56;;;12.24;57.12
76603;BME280;65075;48.390;17.598;2023-04-25T04:03:04;98813.19;;;12.46;56.11
76603;BME280;65075;48.390;17.598;2023-04-25T04:05:30;98820.69;;;12.54;55.97
76603;BME280;65075;48.390;17.598;2023-04-25T04:07:56;98831.59;;;12.40;56.75
76603;BME280;65075;48.390;17.598;2023-04-25T04:10:21;98830.94;;;13.49;53.78
76603;BME280;65075;48.390;17.598;2023-04-25T04:12:47;98822.66;;;13.27;53.38
76603;BME280;65075;48.390;17.598;2023-04-25T04:15:13;98831.66;;;13.13;53.83
76603;BME280;65075;48.390;17.598;2023-04-25T04:17:38;98835.91;;;13.33;53.89
76603;BME280;65075;48.390;17.598;2023-04-25T04:20:04;98839.63;;;13.78;51.83
76603;BME280;65075;48.390;17.598;2023-04-25T04:22:31;98840.78;;;12.63;55.91
76603;BME280;65075;48.390;17.598;2023-04-25T04:24:57;98846.69;;;13.93;52.87
76603;BME280;65075;48.390;17.598;2023-04-25T04:27:23;98847.09;;;12.77;55.90
76603;BME280;65075;48.390;17.598;2023-04-25T04:29:49;98854.59;;;13.31;54.71
76603;BME280;65075;48.390;17.598;2023-04-25T04:32:16;98859.34;;;12.66;56.28
76603;BME280;65075;48.390;17.598;2023-04-25T04:34:42;98844.50;;;12.99;54.73
76603;BME280;65075;48.390;17.598;2023-04-25T04:37:08;98854.22;;;12.78;55.78
76603;BME280;65075;48.390;17.598;2023-04-25T04:39:35;98849.16;;;12.21;57.08
76603;BME280;65075;48.390;17.598;2023-04-25T04:42:00;98845.03;;;12.04;58.28
76603;BME280;65075;48.390;17.598;2023-04-25T04:44:27;98864.53;;;12.17;58.68
76603;BME280;65075;48.390;17.598;2023-04-25T04:46:54;98851.53;;;12.09;57.89
76603;BME280;65075;48.390;17.598;2023-04-25T04:49:20;98848.91;;;12.36;57.69
76603;BME280;65075;48.390;17.598;2023-04-25T04:51:46;98843.34;;;11.90;59.28
76603;BME280;65075;48.390;17.598;2023-04-25T04:54:12;98846.53;;;12.16;58.12
76603;BME280;65075;48.390;17.598;2023-04-25T04:56:38;98848.13;;;11.79;59.42
76603;BME280;65075;48.390;17.598;2023-04-25T04:59:04;98855.31;;;12.45;57.90
76603;BME280;65075;48.390;17.598;2023-04-25T05:01:30;98858.94;;;11.89;59.63
76603;BME280;65075;48.390;17.598;2023-04-25T05:03:56;98849.19;;;11.83;59.37
76603;BME280;65075;48.390;17.598;2023-04-25T05:06:27;98848.25;;;12.44;58.13
76603;BME280;65075;48.390;17.598;2023-04-25T05:08:53;98855.41;;;12.40;59.22
76603;BME280;65075;48.390;17.598;2023-04-25T05:11:19;98812.03;;;12.33;58.29
76603;BME280;65075;48.390;17.598;2023-04-25T05:13:44;98858.06;;;12.77;58.53
76603;BME280;65075;48.390;17.598;2023-04-25T05:16:11;98865.19;;;13.05;58.02
76603;BME280;65075;48.390;17.598;2023-04-25T05:18:37;98860.78;;;12.45;59.39
76603;BME280;65075;48.390;17.598;2023-04-25T05:21:03;98868.50;;;12.43;59.90
76603;BME280;65075;48.390;17.598;2023-04-25T05:23:28;98854.25;;;13.05;56.93
76603;BME280;65075;48.390;17.598;2023-04-25T05:25:56;98863.72;;;13.54;56.34
76603;BME280;65075;48.390;17.598;2023-04-25T05:28:21;98854.69;;;13.12;57.34
76603;BME280;65075;48.390;17.598;2023-04-25T05:30:47;98856.78;;;12.05;60.53
76603;BME280;65075;48.390;17.598;2023-04-25T05:33:13;98859.66;;;12.14;60.40
76603;BME280;65075;48.390;17.598;2023-04-25T05:35:39;98830.31;;;12.19;59.93
76603;BME280;65075;48.390;17.598;2023-04-25T05:38:04;98861.59;;;12.64;59.50
76603;BME280;65075;48.390;17.598;2023-04-25T05:40:30;98856.06;;;12.96;58.20
76603;BME280;65075;48.390;17.598;2023-04-25T05:42:55;98851.47;;;12.46;59.51
76603;BME280;65075;48.390;17.598;2023-04-25T05:45:21;98839.13;;;11.97;60.13
76603;BME280;65075;48.390;17.598;2023-04-25T05:47:46;98861.72;;;12.22;59.11
76603;BME280;65075;48.390;17.598;2023-04-25T05:50:12;98856.50;;;12.39;59.39
76603;BME280;65075;48.390;17.598;2023-04-25T05:52:38;98865.72;;;12.11;60.73
76603;BME280;65075;48.390;17.598;2023-04-25T05:55:04;98862.34;;;12.83;59.05
76603;BME280;65075;48.390;17.598;2023-04-25T05:57:30;98856.41;;;11.74;60.43
76603;BME280;65075;48.390;17.598;2023-04-25T05:59:56;98862.94;;;12.16;60.22
76603;BME280;65075;48.390;17.598;2023-04-25T06:02:22;98853.91;;;11.96;59.29
76603;BME280;65075;48.390;17.598;2023-04-25T06:04:49;98862.41;;;11.95;59.96
76603;BME280;65075;48.390;17.598;2023-04-25T06:07:15;98875.50;;;11.98;60.07
76603;BME280;65075;48.390;17.598;2023-04-25T06:09:41;98871.03;;;12.21;59.71
76603;BME280;65075;48.390;17.598;2023-04-25T06:12:07;98836.09;;;12.18;58.93
76603;BME280;65075;48.390;17.598;2023-04-25T06:14:33;98867.13;;;11.89;59.32
76603;BME280;65075;48.390;17.598;2023-04-25T06:16:59;98868.22;;;12.26;58.69
76603;BME280;65075;48.390;17.598;2023-04-25T06:19:24;98872.44;;;12.18;58.87
76603;BME280;65075;48.390;17.598;2023-04-25T06:21:50;98827.75;;;11.90;58.46
76603;BME280;65075;48.390;17.598;2023-04-25T06:24:16;98865.31;;;12.36;57.87
76603;BME280;65075;48.390;17.598;2023-04-25T06:26:41;98862.97;;;12.29;57.26
76603;BME280;65075;48.390;17.598;2023-04-25T06:29:07;98864.13;;;12.42;57.38
76603;BME280;65075;48.390;17.598;2023-04-25T06:31:32;98865.94;;;12.65;56.45
76603;BME280;65075;48.390;17.598;2023-04-25T06:33:59;98859.06;;;12.17;57.76
76603;BME280;65075;48.390;17.598;2023-04-25T06:36:24;98878.28;;;12.62;56.72
76603;BME280;65075;48.390;17.598;2023-04-25T06:38:52;98875.97;;;13.70;54.00
76603;BME280;65075;48.390;17.598;2023-04-25T06:41:20;98865.72;;;12.61;56.20
76603;BME280;65075;48.390;17.598;2023-04-25T06:43:47;98852.06;;;13.35;54.54
76603;BME280;65075;48.390;17.598;2023-04-25T06:46:12;98871.66;;;12.96;56.86
76603;BME280;65075;48.390;17.598;2023-04-25T06:48:38;98865.78;;;12.89;56.55
76603;BME280;65075;48.390;17.598;2023-04-25T06:51:03;98862.81;;;13.17;55.82
76603;BME280;65075;48.390;17.598;2023-04-25T06:53:29;98865.88;;;13.30;55.66
76603;BME280;65075;48.390;17.598;2023-04-25T06:55:54;98848.53;;;14.19;53.62
76603;BME280;65075;48.390;17.598;2023-04-25T06:58:20;98857.06;;;13.82;54.53
76603;BME280;65075;48.390;17.598;2023-04-25T07:00:45;98866.44;;;13.81;54.49
76603;BME280;65075;48.390;17.598;2023-04-25T07:03:11;98873.03;;;13.53;55.35
76603;BME280;65075;48.390;17.598;2023-04-25T07:05:37;98852.50;;;13.91;53.89
76603;BME280;65075;48.390;17.598;2023-04-25T07:08:02;98857.22;;;13.23;56.13
76603;BME280;65075;48.390;17.598;2023-04-25T07:10:28;98849.88;;;13.04;56.23
76603;BME280;65075;48.390;17.598;2023-04-25T07:12:54;98865.94;;;13.25;56.34
76603;BME280;65075;48.390;17.598;2023-04-25T07:15:19;98859.34;;;13.53;55.34
76603;BME280;65075;48.390;17.598;2023-04-25T07:17:45;98834.09;;;13.92;53.00
76603;BME280;65075;48.390;17.598;2023-04-25T07:20:10;98856.00;;;14.05;53.77
76603;BME280;65075;48.390;17.598;2023-04-25T07:22:36;98857.31;;;13.72;54.66
76603;BME280;65075;48.390;17.598;2023-04-25T07:25:02;98862.56;;;14.54;53.42
76603;BME280;65075;48.390;17.598;2023-04-25T07:27:30;98869.28;;;14.70;52.98
76603;BME280;65075;48.390;17.598;2023-04-25T07:29:56;98864.75;;;14.65;52.25
76603;BME280;65075;48.390;17.598;2023-04-25T07:32:22;98837.16;;;14.26;52.53
76603;BME280;65075;48.390;17.598;2023-04-25T07:34:48;98862.16;;;14.91;49.74
76603;BME280;65075;48.390;17.598;2023-04-25T07:37:15;98858.25;;;15.23;49.59
76603;BME280;65075;48.390;17.598;2023-04-25T07:39:41;98846.41;;;15.14;50.49
76603;BME280;65075;48.390;17.598;2023-04-25T07:42:07;98854.47;;;15.10;49.98
76603;BME280;65075;48.390;17.598;2023-04-25T07:44:35;98856.72;;;16.38;47.67
76603;BME280;65075;48.390;17.598;2023-04-25T07:47:05;98851.38;;;15.99;46.87
76603;BME280;65075;48.390;17.598;2023-04-25T07:49:33;98851.97;;;14.61;51.11
76603;BME280;65075;48.390;17.598;2023-04-25T07:52:00;98852.06;;;14.78;50.93
76603;BME280;65075;48.390;17.598;2023-04-25T07:54:26;98847.44;;;15.66;48.90
76603;BME280;65075;48.390;17.598;2023-04-25T07:56:52;98849.25;;;16.82;46.98
76603;BME280;65075;48.390;17.598;2023-04-25T07:59:18;98844.81;;;17.06;45.20
76603;BME280;65075;48.390;17.598;2023-04-25T08:01:43;98855.31;;;18.71;42.33
76603;BME280;65075;48.390;17.598;2023-04-25T08:04:09;98852.06;;;19.26;41.19
76603;BME280;65075;48.390;17.598;2023-04-25T08:06:34;98856.25;;;19.81;39.52
76603;BME280;65075;48.390;17.598;2023-04-25T08:09:01;98857.91;;;19.01;41.18
76603;BME280;65075;48.390;17.598;2023-04-25T08:11:29;98828.28;;;19.46;39.52
76603;BME280;65075;48.390;17.598;2023-04-25T08:13:54;98833.84;;;20.10;38.13
76603;BME280;65075;48.390;17.598;2023-04-25T08:16:20;98848.94;;;20.37;37.96
76603;BME280;65075;48.390;17.598;2023-04-25T08:18:45;98849.75;;;20.65;36.98
76603;BME280;65075;48.390;17.598;2023-04-25T08:21:11;98854.66;;;20.99;36.30
76603;BME280;65075;48.390;17.598;2023-04-25T08:23:37;98855.59;;;18.91;39.61
76603;BME280;65075;48.390;17.598;2023-04-25T08:26:03;98850.00;;;18.78;40.14
76603;BME280;65075;48.390;17.598;2023-04-25T08:28:30;98859.75;;;17.43;43.78
76603;BME280;65075;48.390;17.598;2023-04-25T08:30:55;98855.09;;;17.94;41.94
76603;BME280;65075;48.390;17.598;2023-04-25T08:33:21;98852.03;;;17.87;43.04
76603;BME280;65075;48.390;17.598;2023-04-25T08:35:48;98850.97;;;18.41;42.83
76603;BME280;65075;48.390;17.598;2023-04-25T08:38:13;98855.66;;;18.28;41.78
76603;BME280;65075;48.390;17.598;2023-04-25T08:40:40;98853.28;;;17.98;43.08
76603;BME280;65075;48.390;17.598;2023-04-25T08:43:07;98854.09;;;18.40;40.95
76603;BME280;65075;48.390;17.598;2023-04-25T08:45:40;98856.03;;;18.93;40.44
76603;BME280;65075;48.390;17.598;2023-04-25T08:48:12;98848.31;;;18.53;40.38
76603;BME280;65075;48.390;17.598;2023-04-25T08:50:53;98855.44;;;19.20;39.32
76603;BME280;65075;48.390;17.598;2023-04-25T08:53:25;98858.34;;;18.91;39.57
76603;BME280;65075;48.390;17.598;2023-04-25T08:55:54;98856.75;;;21.49;35.43
76603;BME280;65075;48.390;17.598;2023-04-25T08:58:20;98843.16;;;19.54;38.78
76603;BME280;65075;48.390;17.598;2023-04-25T09:00:47;98831.25;;;19.77;38.70
76603;BME280;65075;48.390;17.598;2023-04-25T09:03:13;98842.34;;;19.77;38.62
76603;BME280;65075;48.390;17.598;2023-04-25T09:05:40;98837.47;;;19.26;38.48
76603;BME280;65075;48.390;17.598;2023-04-25T09:08:06;98841.28;;;19.94;37.34
76603;BME280;65075;48.390;17.598;2023-04-25T09:10:32;98850.25;;;20.03;37.88
76603;BME280;65075;48.390;17.598;2023-04-25T09:13:09;98848.00;;;22.13;33.42
76603;BME280;65075;48.390;17.598;2023-04-25T09:15:48;98842.00;;;20.19;36.78
76603;BME280;65075;48.390;17.598;2023-04-25T09:18:22;98844.97;;;19.86;35.05
76603;BME280;65075;48.390;17.598;2023-04-25T09:20:48;98831.53;;;20.52;34.85
76603;BME280;65075;48.390;17.598;2023-04-25T09:23:14;98844.00;;;21.01;32.49
76603;BME280;65075;48.390;17.598;2023-04-25T09:25:40;98839.41;;;21.37;32.76
76603;BME280;65075;48.390;17.598;2023-04-25T09:28:06;98836.88;;;21.94;31.42
76603;BME280;65075;48.390;17.598;2023-04-25T09:30:34;98844.78;;;22.11;29.38
76603;BME280;65075;48.390;17.598;2023-04-25T09:33:05;98843.59;;;20.72;33.58
76603;BME280;65075;48.390;17.598;2023-04-25T09:35:38;98841.88;;;20.67;33.09
76603;BME280;65075;48.390;17.598;2023-04-25T09:38:12;98828.13;;;21.45;29.93
76603;BME280;65075;48.390;17.598;2023-04-25T09:40:43;98819.53;;;21.66;29.25
76603;BME280;65075;48.390;17.598;2023-04-25T09:43:20;98841.41;;;22.75;29.63
76603;BME280;65075;48.390;17.598;2023-04-25T09:45:47;98840.84;;;22.89;29.25
76603;BME280;65075;48.390;17.598;2023-04-25T09:48:20;98831.69;;;21.61;30.54
76603;BME280;65075;48.390;17.598;2023-04-25T09:51:06;98849.84;;;22.63;28.61
76603;BME280;65075;48.390;17.598;2023-04-25T09:53:40;98834.09;;;23.32;28.92
76603;BME280;65075;48.390;17.598;2023-04-25T09:56:08;98850.16;;;22.97;29.50
76603;BME280;65075;48.390;17.598;2023-04-25T09:58:36;98816.94;;;22.08;30.35
76603;BME280;65075;48.390;17.598;2023-04-25T10:01:07;98852.97;;;22.23;29.71
76603;BME280;65075;48.390;17.598;2023-04-25T10:03:37;98852.13;;;22.19;29.10
76603;BME280;65075;48.390;17.598;2023-04-25T10:06:08;98842.84;;;21.02;30.90
76603;BME280;65075;48.390;17.598;2023-04-25T10:08:36;98842.19;;;22.76;28.46
76603;BME280;65075;48.390;17.598;2023-04-25T10:11:04;98829.50;;;23.40;26.73
76603;BME280;65075;48.390;17.598;2023-04-25T10:13:31;98813.03;;;23.34;26.47
76603;BME280;65075;48.390;17.598;2023-04-25T10:15:58;98836.91;;;22.33;28.84
76603;BME280;65075;48.390;17.598;2023-04-25T10:18:26;98833.78;;;22.53;30.04
76603;BME280;65075;48.390;17.598;2023-04-25T10:20:54;98821.19;;;24.52;26.01
76603;BME280;65075;48.390;17.598;2023-04-25T10:23:21;98816.50;;;23.47;26.66
76603;BME280;65075;48.390;17.598;2023-04-25T10:25:48;98822.25;;;21.97;27.91
76603;BME280;65075;48.390;17.598;2023-04-25T10:28:14;98824.44;;;20.67;31.85
76603;BME280;65075;48.390;17.598;2023-04-25T10:31:00;98819.44;;;20.05;30.71
76603;BME280;65075;48.390;17.598;2023-04-25T10:33:36;98826.34;;;21.22;30.09
76603;BME280;65075;48.390;17.598;2023-04-25T10:36:19;98814.50;;;21.56;29.64
76603;BME280;65075;48.390;17.598;2023-04-25T10:38:48;98810.28;;;21.62;30.22
76603;BME280;65075;48.390;17.598;2023-04-25T10:41:18;98804.22;;;19.98;31.82
76603;BME280;65075;48.390;17.598;2023-04-25T10:43:47;98783.97;;;19.10;33.81
76603;BME280;65075;48.390;17.598;2023-04-25T10:46:16;98811.91;;;17.98;36.11
76603;BME280;65075;48.390;17.598;2023-04-25T10:48:49;98824.03;;;18.38;35.90
76603;BME280;65075;48.390;17.598;2023-04-25T10:51:36;98818.16;;;17.86;36.49
76603;BME280;65075;48.390;17.598;2023-04-25T10:54:09;98817.25;;;17.36;36.96
76603;BME280;65075;48.390;17.598;2023-04-25T10:56:38;98816.78;;;17.34;37.66
76603;BME280;65075;48.390;17.598;2023-04-25T10:59:15;98805.41;;;19.25;34.36
76603;BME280;65075;48.390;17.598;2023-04-25T11:01:46;98809.44;;;19.88;33.55
76603;BME280;65075;48.390;17.598;2023-04-25T11:04:29;98794.19;;;21.87;31.06
76603;BME280;65075;48.390;17.598;2023-04-25T11:07:34;98805.69;;;23.00;29.12
76603;BME280;65075;48.390;17.598;2023-04-25T11:10:04;98807.94;;;20.58;30.68
76603;BME280;65075;48.390;17.598;2023-04-25T11:12:33;98807.25;;;19.33;33.13
76603;BME280;65075;48.390;17.598;2023-04-25T11:15:00;98805.16;;;19.06;33.66
76603;BME280;65075;48.390;17.598;2023-04-25T11:17:26;98805.38;;;20.65;33.46
76603;BME280;65075;48.390;17.598;2023-04-25T11:19:53;98817.84;;;21.96;30.36
76603;BME280;65075;48.390;17.598;2023-04-25T11:22:21;98811.78;;;23.06;28.25
76603;BME280;65075;48.390;17.598;2023-04-25T11:24:46;98804.66;;;22.28;29.34
76603;BME280;65075;48.390;17.598;2023-04-25T11:27:12;98807.22;;;21.67;28.93
76603;BME280;65075;48.390;17.598;2023-04-25T11:29:38;98811.09;;;22.70;28.62
76603;BME280;65075;48.390;17.598;2023-04-25T11:32:04;98814.59;;;21.13;29.71
76603;BME280;65075;48.390;17.598;2023-04-25T11:34:31;98818.81;;;21.38;30.74
76603;BME280;65075;48.390;17.598;2023-04-25T11:36:59;98815.16;;;21.34;30.71
76603;BME280;65075;48.390;17.598;2023-04-25T11:39:27;98802.19;;;20.63;30.71
76603;BME280;65075;48.390;17.598;2023-04-25T11:41:54;98810.66;;;21.45;28.95
76603;BME280;65075;48.390;17.598;2023-04-25T11:44:21;98800.91;;;22.01;29.26
76603;BME280;65075;48.390;17.598;2023-04-25T11:46:48;98785.63;;;21.26;30.45
76603;BME280;65075;48.390;17.598;2023-04-25T11:49:14;98798.47;;;21.49;30.04
76603;BME280;65075;48.390;17.598;2023-04-25T11:51:44;98793.47;;;22.24;28.97
76603;BME280;65075;48.390;17.598;2023-04-25T11:54:11;98802.34;;;21.14;30.67
76603;BME280;65075;48.390;17.598;2023-04-25T11:56:37;98772.44;;;19.20;34.47
76603;BME280;65075;48.390;17.598;2023-04-25T11:59:05;98796.41;;;19.76;34.03
76603;BME280;65075;48.390;17.598;2023-04-25T12:01:33;98793.50;;;19.12;35.17
76603;BME280;65075;48.390;17.598;2023-04-25T12:04:22;98795.13;;;18.89;32.41
76603;BME280;65075;48.390;17.598;2023-04-25T12:06:52;98802.69;;;19.49;32.76
76603;BME280;65075;48.390;17.598;2023-04-25T12:09:28;98804.28;;;17.36;40.10
76603;BME280;65075;48.390;17.598;2023-04-25T12:11:56;98801.84;;;16.16;42.76
76603;BME280;65075;48.390;17.598;2023-04-25T12:14:27;98801.63;;;15.53;44.69
76603;BME280;65075;48.390;17.598;2023-04-25T12:16:56;98800.03;;;15.52;44.92
76603;BME280;65075;48.390;17.598;2023-04-25T12:19:23;98808.97;;;14.87;47.49
76603;BME280;65075;48.390;17.598;2023-04-25T12:21:50;98793.75;;;15.20;47.03
76603;BME280;65075;48.390;17.598;2023-04-25T12:24:24;98798.56;;;14.45;49.31
76603;BME280;65075;48.390;17.598;2023-04-25T12:29:19;98816.63;;;14.68;48.02
76603;BME280;65075;48.390;17.598;2023-04-25T12:31:44;98802.47;;;15.22;46.82
76603;BME280;65075;48.390;17.598;2023-04-25T12:34:10;98806.00;;;15.62;45.64
76603;BME280;65075;48.390;17.598;2023-04-25T12:36:36;98769.94;;;15.47;45.15
76603;BME280;65075;48.390;17.598;2023-04-25T12:39:02;98807.97;;;15.79;45.07
76603;BME280;65075;48.390;17.598;2023-04-25T12:41:30;98806.50;;;15.73;45.47
76603;BME280;65075;48.390;17.598;2023-04-25T12:43:55;98812.78;;;15.56;47.39
76603;BME280;65075;48.390;17.598;2023-04-25T12:46:21;98811.38;;;16.36;45.06
76603;BME280;65075;48.390;17.598;2023-04-25T12:48:48;98823.00;;;16.76;43.72
76603;BME280;65075;48.390;17.598;2023-04-25T12:51:14;98817.97;;;17.24;42.99
76603;BME280;65075;48.390;17.598;2023-04-25T12:53:41;98816.94;;;17.37;41.63